createdAt,value
2023-01-01T00:00:44.630Z,97762.56
2023-01-01T00:05:46.675Z,97763.00
2023-01-01T00:10:48.530Z,97767.50
2023-01-01T00:15:50.277Z,97767.28
2023-01-01T00:20:52.056Z,97775.75
2023-01-01T00:25:53.814Z,97789.44
2023-01-01T00:30:55.607Z,97789.63
2023-01-01T00:35:57.375Z,97783.16
2023-01-01T00:40:59.240Z,97787.59
2023-01-01T00:46:01.516Z,97784.75
2023-01-01T00:51:04.029Z,97789.19
2023-01-01T00:56:06.371Z,97796.88
2023-01-01T01:01:08.297Z,97803.97
2023-01-01T01:06:12.975Z,97804.59
2023-01-01T01:11:17.898Z,97800.81
2023-01-01T01:16:32.064Z,97817.53
2023-01-01T01:21:34.952Z,97811.47
2023-01-01T01:26:36.944Z,97807.66
2023-01-01T01:31:38.782Z,97818.56
2023-01-01T01:36:40.568Z,97823.00
2023-01-01T01:41:42.378Z,97823.56
2023-01-01T01:46:45.537Z,97825.22
2023-01-01T01:51:47.995Z,97832.06
2023-01-01T01:56:54.911Z,97824.03
2023-01-01T02:01:57.605Z,97827.25
2023-01-01T02:07:00.119Z,97820.00
2023-01-01T02:12:01.918Z,97822.81
2023-01-01T02:17:22.773Z,97832.88
2023-01-01T02:22:36.688Z,97825.63
2023-01-01T02:28:02.614Z,97837.72
2023-01-01T02:33:09.281Z,97826.84
2023-01-01T02:38:11.103Z,97815.34
2023-01-01T02:43:13.185Z,97826.44
2023-01-01T02:48:36.855Z,97817.34
2023-01-01T02:54:01.110Z,97817.56
2023-01-01T02:59:30.477Z,97818.38
2023-01-01T03:04:59.864Z,97813.72
2023-01-01T03:10:10.842Z,97814.69
2023-01-01T03:15:25.155Z,97811.66
2023-01-01T03:20:31.196Z,97814.84
2023-01-01T03:25:39.060Z,97819.66
2023-01-01T03:30:44.135Z,97825.91
2023-01-01T03:35:50.803Z,97824.72
2023-01-01T03:41:00.948Z,97821.13
2023-01-01T03:46:05.119Z,97832.38
2023-01-01T03:51:18.046Z,97826.53
2023-01-01T03:56:45.701Z,97838.94
2023-01-01T04:01:53.425Z,97842.38
2023-01-01T04:06:57.623Z,97840.56
2023-01-01T04:12:03.980Z,97850.22
2023-01-01T04:17:07.400Z,97846.91
2023-01-01T04:22:09.293Z,97851.28
2023-01-01T04:27:11.072Z,97856.72
2023-01-01T04:32:12.893Z,97852.78
2023-01-01T04:37:15.679Z,97858.00
2023-01-01T04:42:17.452Z,97859.53
2023-01-01T04:47:19.240Z,97855.66
2023-01-01T04:52:21.963Z,97861.94
2023-01-01T04:57:23.764Z,97869.81
2023-01-01T05:02:26.333Z,97864.34
2023-01-01T05:07:28.248Z,97867.66
2023-01-01T05:12:30.375Z,97861.53
2023-01-01T05:17:32.164Z,97863.09
2023-01-01T05:22:33.984Z,97865.34
2023-01-01T05:27:35.791Z,97875.56
2023-01-01T05:32:38.142Z,97873.00
2023-01-01T05:37:40.014Z,97884.41
2023-01-01T05:42:42.059Z,97880.16
2023-01-01T05:47:43.833Z,97890.19
2023-01-01T05:52:45.638Z,97899.31
2023-01-01T05:57:47.440Z,97890.41
2023-01-01T06:02:51.210Z,97897.56
2023-01-01T06:07:53.086Z,97895.34
2023-01-01T06:13:00.737Z,97891.66
2023-01-01T06:18:02.536Z,97899.66
2023-01-01T06:23:04.372Z,97907.94
2023-01-01T06:28:09.053Z,97897.69
2023-01-01T06:33:10.843Z,97896.91
2023-01-01T06:38:12.672Z,97896.38
2023-01-01T06:43:14.459Z,97892.59
2023-01-01T06:48:16.251Z,97907.50
2023-01-01T06:53:18.217Z,97899.69
2023-01-01T06:58:20.043Z,97911.38
2023-01-01T07:03:21.875Z,97925.88
2023-01-01T07:08:23.901Z,97929.91
2023-01-01T07:13:27.262Z,97917.59
2023-01-01T07:18:29.125Z,97923.25
2023-01-01T07:23:33.983Z,97923.72
2023-01-01T07:28:35.788Z,97928.34
2023-01-01T07:33:37.631Z,97927.94
2023-01-01T07:38:39.464Z,97938.53
2023-01-01T07:43:41.414Z,97951.81
2023-01-01T07:48:43.199Z,97966.34
2023-01-01T07:53:45.016Z,97984.22
2023-01-01T07:58:46.811Z,97977.31
2023-01-01T08:03:53.005Z,97989.03
2023-01-01T08:08:54.804Z,97992.03
2023-01-01T08:13:56.623Z,98003.69
2023-01-01T08:18:58.467Z,98010.34
2023-01-01T08:24:00.276Z,98032.06
2023-01-01T08:29:04.834Z,98020.47
2023-01-01T08:34:06.784Z,98022.75
2023-01-01T08:39:09.394Z,98029.56
2023-01-01T08:44:11.215Z,98042.88
2023-01-01T08:49:13.208Z,98042.09
2023-01-01T08:54:15.028Z,98054.75
2023-01-01T08:59:16.857Z,98061.44
2023-01-01T09:04:18.681Z,98067.91
2023-01-01T09:09:24.322Z,98080.19
2023-01-01T09:14:29.251Z,98080.84
2023-01-01T09:19:31.050Z,98088.50
2023-01-01T09:24:32.895Z,98083.75
2023-01-01T09:29:34.783Z,98090.50
2023-01-01T09:34:36.796Z,98105.00
2023-01-01T09:39:38.592Z,98100.69
2023-01-01T09:45:02.575Z,98103.63
2023-01-01T09:50:20.450Z,98115.53
2023-01-01T09:55:29.461Z,98122.81
2023-01-01T10:00:34.866Z,98126.47
2023-01-01T10:05:57.073Z,98119.44
2023-01-01T10:11:17.365Z,98118.03
2023-01-01T10:16:25.505Z,98118.22
2023-01-01T10:21:34.004Z,98128.50
2023-01-01T10:26:37.965Z,98119.22
2023-01-01T10:31:42.833Z,98108.72
2023-01-01T10:36:45.069Z,98111.97
2023-01-01T10:41:48.183Z,98111.59
2023-01-01T10:46:56.532Z,98107.97
2023-01-01T10:51:59.457Z,98116.84
2023-01-01T10:57:15.249Z,98110.50
2023-01-01T11:14:59.458Z,98107.16
2023-01-01T11:20:03.236Z,98118.25
2023-01-01T11:25:17.804Z,98108.16
2023-01-01T11:30:24.231Z,98097.44
2023-01-01T11:35:29.411Z,98090.16
2023-01-01T11:40:39.809Z,98093.03
2023-01-01T11:45:43.047Z,98090.81
2023-01-01T11:51:14.545Z,98080.31
2023-01-01T11:56:22.291Z,98082.72
2023-01-01T12:01:53.873Z,98069.41
2023-01-01T12:07:23.164Z,98072.63
2023-01-01T12:12:35.810Z,98072.03
2023-01-01T12:17:43.720Z,98059.13
2023-01-01T12:22:45.484Z,98050.03
2023-01-01T12:28:12.095Z,98060.50
2023-01-01T12:33:44.816Z,98036.88
2023-01-01T12:39:23.685Z,98034.06
2023-01-01T12:44:54.950Z,98032.59
2023-01-01T12:50:10.640Z,98021.50
2023-01-01T12:55:36.876Z,98013.09
2023-01-01T13:00:42.421Z,98020.53
2023-01-01T13:05:48.741Z,98021.97
2023-01-01T13:10:56.991Z,98028.25
2023-01-01T13:15:58.974Z,98019.97
2023-01-01T13:21:08.858Z,98007.22
2023-01-01T13:26:22.981Z,98016.75
2023-01-01T13:31:48.025Z,98025.22
2023-01-01T13:36:49.866Z,98041.97
2023-01-01T13:41:51.661Z,98045.41
2023-01-01T13:47:14.086Z,98049.63
2023-01-01T13:52:34.625Z,98055.28
2023-01-01T13:58:18.009Z,98068.16
2023-01-01T14:03:21.304Z,98084.47
2023-01-01T14:08:33.717Z,98090.31
2023-01-01T14:13:41.646Z,98088.28
2023-01-01T14:18:53.631Z,98082.78
2023-01-01T14:23:57.407Z,98100.31
2023-01-01T14:29:01.858Z,98099.66
2023-01-01T14:34:24.355Z,98098.81
2023-01-01T14:39:31.718Z,98103.41
2023-01-01T14:44:38.094Z,98098.38
2023-01-01T14:49:39.936Z,98112.25
2023-01-01T14:54:44.453Z,98108.34
2023-01-01T14:59:49.388Z,98106.28
2023-01-01T15:04:51.608Z,98104.81
2023-01-01T15:09:55.398Z,98110.69
2023-01-01T15:14:58.360Z,98122.91
2023-01-01T15:20:01.495Z,98125.28
2023-01-01T15:25:03.950Z,98129.66
2023-01-01T15:30:13.612Z,98132.44
2023-01-01T15:35:31.124Z,98130.59
2023-01-01T15:40:36.063Z,98142.03
2023-01-01T15:45:39.905Z,98149.03
2023-01-01T15:50:56.712Z,98143.53
2023-01-01T15:56:05.159Z,98169.13
2023-01-01T16:01:14.369Z,98163.00
2023-01-01T16:06:18.093Z,98162.16
2023-01-01T16:11:19.935Z,98161.28
2023-01-01T16:16:29.038Z,98163.28
2023-01-01T16:21:35.719Z,98161.34
2023-01-01T16:26:37.519Z,98164.47
2023-01-01T16:31:40.352Z,98156.34
2023-01-01T16:36:43.457Z,98152.56
2023-01-01T16:41:45.432Z,98143.94
2023-01-01T16:46:47.519Z,98139.00
2023-01-01T16:51:50.664Z,98146.03
2023-01-01T16:56:52.480Z,98142.38
2023-01-01T17:01:54.384Z,98137.75
2023-01-01T17:06:56.215Z,98127.09
2023-01-01T17:11:58.027Z,98135.94
2023-01-01T17:16:59.873Z,98132.72
2023-01-01T17:22:01.805Z,98142.97
2023-01-01T17:27:03.761Z,98143.84
2023-01-01T17:32:06.006Z,98140.72
2023-01-01T17:37:07.892Z,98154.41
2023-01-01T17:42:09.771Z,98151.72
2023-01-01T17:47:11.732Z,98143.97
2023-01-01T17:52:13.564Z,98139.81
2023-01-01T17:57:15.795Z,98152.25
2023-01-01T18:02:17.793Z,98152.06
2023-01-01T18:07:19.847Z,98158.66
2023-01-01T18:12:21.753Z,98153.94
2023-01-01T18:17:23.584Z,98147.41
2023-01-01T18:22:25.366Z,98142.28
2023-01-01T18:27:27.206Z,98145.78
2023-01-01T18:32:28.988Z,98153.78
2023-01-01T18:37:30.759Z,98158.31
2023-01-01T18:42:54.419Z,98162.06
2023-01-01T18:47:56.348Z,98153.59
2023-01-01T18:53:20.410Z,98153.38
2023-01-01T19:10:51.494Z,98145.25
2023-01-01T19:16:14.112Z,98135.69
2023-01-01T19:21:23.112Z,98131.50
2023-01-01T19:26:34.744Z,98124.53
2023-01-01T19:31:36.572Z,98119.75
2023-01-01T19:36:38.973Z,98120.25
2023-01-01T19:41:41.240Z,98119.97
2023-01-01T19:46:43.044Z,98115.59
2023-01-01T19:51:44.869Z,98112.03
2023-01-01T19:56:47.561Z,98105.91
2023-01-01T20:02:09.782Z,98105.94
2023-01-01T20:07:11.159Z,98089.66
2023-01-01T20:12:13.221Z,98080.13
2023-01-01T20:17:17.965Z,98069.91
2023-01-01T20:22:22.046Z,98073.84
2023-01-01T20:27:26.973Z,98067.19
2023-01-01T20:32:29.175Z,98063.94
2023-01-01T20:37:36.799Z,98064.59
2023-01-01T20:42:38.660Z,98054.84
2023-01-01T20:47:41.046Z,98045.44
2023-01-01T20:52:42.820Z,98040.75
2023-01-01T20:57:44.569Z,98036.03
2023-01-01T21:02:46.548Z,98041.91
2023-01-01T21:07:48.357Z,98046.13
2023-01-01T21:12:50.137Z,98039.97
2023-01-01T21:17:51.920Z,98022.44
2023-01-01T21:22:57.392Z,98027.16
2023-01-01T21:27:59.172Z,98013.84
2023-01-01T21:33:01.773Z,98020.81
2023-01-01T21:38:18.991Z,98008.00
2023-01-01T21:43:40.288Z,97995.34
2023-01-01T21:48:48.490Z,97993.53
2023-01-01T21:53:51.160Z,98005.03
2023-01-01T21:59:11.918Z,98004.06
2023-01-01T22:04:25.348Z,98004.91
2023-01-01T22:09:32.658Z,97996.84
2023-01-01T22:14:39.121Z,97996.94
2023-01-01T22:19:42.475Z,97998.88
2023-01-01T22:24:50.486Z,97991.06
2023-01-01T22:29:52.680Z,97985.16
2023-01-01T22:35:05.725Z,97972.41
2023-01-01T22:40:18.010Z,97975.50
2023-01-01T22:45:19.947Z,97970.53
2023-01-01T22:50:23.515Z,97952.53
2023-01-01T22:55:25.353Z,97949.97
2023-01-01T23:00:27.119Z,97952.72
2023-01-01T23:05:29.152Z,97949.03
2023-01-01T23:10:32.032Z,97941.59
2023-01-01T23:15:55.744Z,97941.59
2023-01-01T23:20:58.611Z,97940.00
2023-01-01T23:26:01.423Z,97936.47
2023-01-01T23:31:05.662Z,97935.47
2023-01-01T23:36:09.459Z,97935.34
2023-01-01T23:41:11.258Z,97927.84
2023-01-01T23:46:18.015Z,97928.16
2023-01-01T23:51:20.305Z,97914.84
2023-01-01T23:56:22.844Z,97919.25
